Terminal Aerodrome Forecast
Issued by NWS Memphis, TN

Home | Current Version | Previous Version | Text Only | Print | Product List | Glossary On
Versions: 1 2 3 4 5 6 7 8 9 10 11 12 13 14 15 16 17 18 19 20 21
862
FTUS44 KMEG 281740
TAFMKL
TAF
KMKL 281740Z 2818/2918 04007KT P6SM SCT035 SCT250
     FM291000 07004KT P6SM SCT025
     FM291200 12005KT P6SM BKN015
     FM291600 14007KT P6SM SCT025 OVC050=

USA.gov is the U.S. government's official web portal to all federal, state and local government web resources and services.